Time;durP1;ratioP1;P1;durP2;ratioP2;P2;SDS_P1;SDS_P2;PMS_P1;PMS_P2;Temp;Humidity;BMP_temperature;BMP_pressure;BME280_temperature;BME280_humidity;BME280_pressure;Samples;Min_cycle;Max_cycle;Signal;HPM_P1;HPM_P2
2021/06/13 00:01:31;;;;;;;7.15;2.72;;;;;;;11.97;67.40;100794.03;5031876;28;20590;-77
2021/06/13 00:03:56;;;;;;;5.00;2.08;;;;;;;11.67;68.72;100798.44;5033928;28;20049;-78
2021/06/13 00:06:22;;;;;;;6.65;2.15;;;;;;;12.15;67.41;100799.56;5036695;28;20045;-79
2021/06/13 00:08:48;;;;;;;10.48;2.35;;;;;;;11.84;68.35;100796.09;5031281;28;20520;-77
2021/06/13 00:11:16;;;;;;;4.28;2.08;;;;;;;11.85;67.44;100801.38;5032797;28;20045;-77
2021/06/13 00:13:43;;;;;;;6.57;2.13;;;;;;;11.87;67.10;100794.00;5023184;28;20041;-79
2021/06/13 00:16:09;;;;;;;5.28;1.77;;;;;;;11.46;68.96;100807.56;5037523;28;20103;-77
2021/06/13 00:18:36;;;;;;;5.63;2.00;;;;;;;11.39;69.23;100805.44;5020771;28;20057;-78
2021/06/13 00:21:02;;;;;;;6.65;2.17;;;;;;;11.69;67.83;100815.28;5035262;28;20111;-78
2021/06/13 00:23:29;;;;;;;6.70;2.45;;;;;;;11.85;67.42;100820.19;5032557;28;20053;-78
2021/06/13 00:25:55;;;;;;;8.50;1.95;;;;;;;11.55;67.49;100828.28;5034201;28;20048;-78
2021/06/13 00:28:22;;;;;;;7.00;2.00;;;;;;;11.67;67.33;100830.72;5030121;28;20113;-79
2021/06/13 00:30:48;;;;;;;5.47;2.00;;;;;;;11.38;68.65;100829.78;5032382;28;20045;-78
2021/06/13 00:33:14;;;;;;;6.47;2.90;;;;;;;11.39;68.16;100826.94;5027589;28;20095;-78
2021/06/13 00:35:40;;;;;;;7.32;2.22;;;;;;;11.62;66.59;100832.13;5033166;28;20045;-79
2021/06/13 00:38:06;;;;;;;4.57;2.45;;;;;;;11.75;66.52;100834.56;5030506;28;20098;-78
2021/06/13 00:40:33;;;;;;;8.35;2.22;;;;;;;11.58;67.45;100831.53;5031413;28;20053;-79
2021/06/13 00:43:00;;;;;;;10.38;2.70;;;;;;;11.58;66.85;100836.91;5030667;28;20476;-77
2021/06/13 00:45:28;;;;;;;7.88;2.22;;;;;;;11.67;66.50;100833.41;5033822;28;20076;-77
2021/06/13 00:47:54;;;;;;;5.40;2.38;;;;;;;11.59;66.56;100837.75;5029736;28;20317;-79
2021/06/13 00:50:26;;;;;;;9.93;2.50;;;;;;;11.59;66.70;100843.13;5026088;28;20048;-79
2021/06/13 00:52:52;;;;;;;5.97;2.25;;;;;;;11.46;67.03;100835.31;5032165;28;20657;-77
2021/06/13 00:55:18;;;;;;;11.18;2.60;;;;;;;11.33;67.39;100838.22;5033061;28;20480;-75
2021/06/13 00:57:44;;;;;;;7.47;2.47;;;;;;;11.46;66.02;100832.63;5032833;28;20083;-79
2021/06/13 01:00:11;;;;;;;6.28;2.53;;;;;;;11.40;66.41;100838.56;5031936;28;20046;-79
2021/06/13 01:02:38;;;;;;;8.48;2.67;;;;;;;11.06;67.84;100846.00;5026287;28;20057;-78
2021/06/13 01:05:06;;;;;;;10.00;2.50;;;;;;;11.33;66.57;100837.38;5031257;28;20100;-78
2021/06/13 01:07:39;;;;;;;9.75;2.40;;;;;;;10.93;67.93;100846.22;5029916;28;20084;-77
2021/06/13 01:10:11;;;;;;;7.90;2.08;;;;;;;11.37;66.75;100842.38;5033183;28;20050;-79
2021/06/13 01:12:43;;;;;;;9.30;2.08;;;;;;;11.04;68.50;100847.97;5026294;28;20048;-79
2021/06/13 01:15:12;;;;;;;3.97;2.15;;;;;;;11.09;67.46;100851.97;5022309;28;20045;-78
2021/06/13 01:17:45;;;;;;;4.75;2.03;;;;;;;10.90;68.20;100856.38;5030416;28;20123;-76
2021/06/13 01:20:21;;;;;;;8.05;2.30;;;;;;;10.92;67.59;100855.25;5024881;28;20042;-78
2021/06/13 01:23:07;;;;;;;8.20;2.47;;;;;;;11.21;66.67;100858.09;5032750;28;20045;-77
2021/06/13 01:25:47;;;;;;;9.57;2.75;;;;;;;10.97;68.55;100855.72;5026391;28;20718;-77
2021/06/13 01:28:50;;;;;;;10.23;2.47;;;;;;;10.52;69.50;100865.81;5031016;28;20501;-77
2021/06/13 01:31:18;;;;;;;5.72;2.13;;;;;;;10.34;70.29;100865.53;5031264;28;20423;-76
2021/06/13 01:33:47;;;;;;;5.25;2.25;;;;;;;10.41;71.32;100868.56;5028668;28;20080;-76
2021/06/13 01:36:15;;;;;;;6.65;2.10;;;;;;;10.29;70.78;100866.91;5032359;28;20037;-77
2021/06/13 01:38:44;;;;;;;5.82;2.83;;;;;;;10.24;70.10;100862.78;5029647;28;20052;-77
2021/06/13 01:41:13;;;;;;;8.48;2.38;;;;;;;10.92;67.35;100870.53;5025446;28;20702;-78
2021/06/13 01:43:40;;;;;;;8.02;2.30;;;;;;;10.90;67.86;100862.59;5022308;28;20064;-76
2021/06/13 01:46:09;;;;;;;8.68;2.63;;;;;;;10.83;67.70;100869.47;5033360;28;20045;-78
2021/06/13 01:48:38;;;;;;;7.60;2.47;;;;;;;11.13;66.14;100861.47;5024825;28;20046;-76
2021/06/13 01:51:04;;;;;;;6.38;2.15;;;;;;;10.90;67.52;100867.13;5022704;28;20052;-77
2021/06/13 01:53:31;;;;;;;6.50;1.98;;;;;;;10.95;66.41;100868.41;5032338;28;20053;-75
2021/06/13 01:55:58;;;;;;;8.40;1.98;;;;;;;11.09;66.38;100867.22;5031612;28;20054;-77
2021/06/13 01:58:25;;;;;;;5.95;1.95;;;;;;;11.02;66.02;100871.44;5015721;28;20568;-78
2021/06/13 02:00:52;;;;;;;9.40;2.22;;;;;;;10.93;66.47;100877.59;5031766;28;20046;-78
2021/06/13 02:03:20;;;;;;;13.95;2.75;;;;;;;10.75;66.69;100859.38;5030461;28;20133;-78
2021/06/13 02:05:48;;;;;;;4.55;1.85;;;;;;;10.84;66.83;100874.72;5033465;28;20053;-76
2021/06/13 02:08:15;;;;;;;7.90;2.17;;;;;;;10.68;68.38;100871.63;5029616;28;20052;-78
2021/06/13 02:10:42;;;;;;;5.63;2.13;;;;;;;10.69;67.74;100880.53;5030340;28;20046;-79
2021/06/13 02:13:12;;;;;;;6.75;1.73;;;;;;;10.52;67.71;100877.41;5023996;28;20049;-79
2021/06/13 02:15:41;;;;;;;5.40;2.33;;;;;;;10.46;68.13;100871.72;5033945;28;20117;-78
2021/06/13 02:18:08;;;;;;;8.88;3.00;;;;;;;10.45;68.89;100872.72;5026384;28;20056;-77
2021/06/13 02:20:37;;;;;;;3.78;2.30;;;;;;;10.17;71.04;100879.47;5027872;28;20045;-80
2021/06/13 02:23:04;;;;;;;7.00;1.73;;;;;;;9.98;71.53;100882.81;5034552;28;20411;-79
2021/06/13 02:25:30;;;;;;;8.75;2.80;;;;;;;10.09;70.70;100881.94;5032260;28;20077;-77
2021/06/13 02:27:58;;;;;;;7.55;2.28;;;;;;;10.28;70.70;100898.22;5030356;28;20136;-79
2021/06/13 02:30:28;;;;;;;8.25;2.53;;;;;;;10.18;69.99;100891.88;5037053;28;20046;-78
2021/06/13 02:32:58;;;;;;;7.72;2.20;;;;;;;10.24;71.10;100891.44;5036952;28;20052;-77
2021/06/13 02:35:24;;;;;;;6.57;1.77;;;;;;;9.83;72.45;100894.78;5036360;28;20046;-78
2021/06/13 02:37:52;;;;;;;6.38;2.03;;;;;;;9.60;73.25;100902.84;5034558;28;20057;-81
2021/06/13 02:40:20;;;;;;;9.73;2.85;;;;;;;9.84;73.63;100907.22;5031435;28;20042;-80
2021/06/13 02:42:46;;;;;;;5.95;2.17;;;;;;;9.90;73.23;100896.81;5038964;28;20053;-77
2021/06/13 02:45:16;;;;;;;6.93;2.33;;;;;;;9.84;73.95;100896.47;5035126;28;20046;-78
2021/06/13 02:47:43;;;;;;;9.50;2.63;;;;;;;9.90;73.72;100901.34;5032278;28;20053;-79
2021/06/13 02:50:11;;;;;;;8.43;3.33;;;;;;;9.67;74.32;100900.50;5031837;28;20430;-78
2021/06/13 02:52:46;;;;;;;8.95;3.00;;;;;;;9.58;75.25;100910.13;5030453;28;20052;-79
2021/06/13 02:55:19;;;;;;;8.03;3.10;;;;;;;9.61;75.34;100917.94;5032760;28;20048;-78
2021/06/13 02:57:51;;;;;;;10.13;2.72;;;;;;;9.96;73.97;100919.63;5029948;28;20342;-78
2021/06/13 03:00:19;;;;;;;10.18;3.00;;;;;;;10.05;74.17;100924.22;5033306;28;20132;-77
2021/06/13 03:02:50;;;;;;;8.18;3.00;;;;;;;10.04;74.23;100935.06;5034026;28;20056;-78
2021/06/13 03:05:18;;;;;;;7.38;2.85;;;;;;;9.82;74.17;100922.53;5033913;28;20056;-77
2021/06/13 03:07:45;;;;;;;10.13;3.58;;;;;;;9.85;75.05;100927.69;5032472;28;20041;-76
2021/06/13 03:10:13;;;;;;;7.55;3.25;;;;;;;10.05;73.94;100937.63;5032766;28;20471;-78
2021/06/13 03:12:40;;;;;;;7.75;3.00;;;;;;;9.90;74.20;100938.88;5035175;28;20418;-78
2021/06/13 03:15:07;;;;;;;10.73;3.35;;;;;;;9.77;75.52;100935.47;5032833;28;21437;-78
2021/06/13 03:17:35;;;;;;;10.05;2.70;;;;;;;9.66;75.39;100936.31;5033684;28;20071;-78
2021/06/13 03:20:02;;;;;;;9.43;2.92;;;;;;;9.83;74.90;100943.88;5032276;28;20049;-78
2021/06/13 03:22:30;;;;;;;8.13;2.78;;;;;;;9.68;75.71;100951.28;5032678;28;20049;-78
2021/06/13 03:24:59;;;;;;;12.43;3.20;;;;;;;9.62;75.90;100948.28;5034847;28;20052;-80
2021/06/13 03:27:27;;;;;;;11.38;4.25;;;;;;;9.89;75.40;100948.75;5032465;28;20142;-79
2021/06/13 03:29:54;;;;;;;6.28;3.15;;;;;;;10.06;74.41;100957.25;5032679;28;20184;-77
2021/06/13 03:32:20;;;;;;;8.02;3.08;;;;;;;10.43;72.53;100957.88;5034402;28;20065;-77
2021/06/13 03:34:48;;;;;;;14.18;3.88;;;;;;;10.49;72.30;100963.56;5034365;28;20049;-76
2021/06/13 03:37:15;;;;;;;10.45;3.38;;;;;;;10.61;72.41;100968.91;5033842;28;20151;-77
2021/06/13 03:39:45;;;;;;;9.25;2.80;;;;;;;10.47;72.58;100972.72;5031434;28;20045;-79
2021/06/13 03:42:13;;;;;;;8.00;3.45;;;;;;;10.46;72.55;100971.03;5026653;28;20458;-78
2021/06/13 03:44:42;;;;;;;8.85;3.35;;;;;;;10.44;72.04;100971.16;5028677;28;20045;-78
2021/06/13 03:47:11;;;;;;;8.82;3.38;;;;;;;10.37;73.55;100975.31;5036425;28;20045;-78
2021/06/13 03:49:39;;;;;;;9.80;3.30;;;;;;;10.37;73.03;100987.88;5036487;28;20056;-76
2021/06/13 03:52:06;;;;;;;10.13;3.15;;;;;;;10.51;72.49;100983.06;5037071;28;20534;-79
2021/06/13 03:54:33;;;;;;;9.00;2.92;;;;;;;10.71;71.18;100986.81;5033723;28;20476;-80
2021/06/13 03:57:04;;;;;;;8.65;3.00;;;;;;;10.58;72.08;100983.44;5029624;28;20111;-78
2021/06/13 03:59:31;;;;;;;9.18;3.40;;;;;;;10.75;71.44;100990.09;5035113;28;20056;-80
2021/06/13 04:02:02;;;;;;;9.90;2.85;;;;;;;10.71;72.11;100986.81;5030179;28;20092;-83
2021/06/13 04:04:37;;;;;;;7.65;3.13;;;;;;;11.00;70.68;100983.50;5033323;28;20119;-79
2021/06/13 04:07:06;;;;;;;8.20;2.72;;;;;;;10.81;71.06;100987.75;5032942;28;20050;-80
2021/06/13 04:09:33;;;;;;;8.98;3.00;;;;;;;10.63;72.14;100989.25;5031782;28;20444;-78
2021/06/13 04:12:00;;;;;;;8.80;3.05;;;;;;;10.76;71.03;100998.00;5032879;28;20053;-77
2021/06/13 04:14:27;;;;;;;6.80;2.80;;;;;;;10.57;73.01;100997.84;5034486;28;20057;-77
2021/06/13 04:16:55;;;;;;;11.57;3.40;;;;;;;10.51;73.08;100996.50;5035246;28;20146;-78
2021/06/13 04:19:23;;;;;;;9.40;2.63;;;;;;;10.66;72.44;101005.13;5033015;28;20412;-77
2021/06/13 04:21:49;;;;;;;6.18;2.97;;;;;;;10.69;72.19;101012.09;5033298;28;20041;-76
2021/06/13 04:24:18;;;;;;;12.02;3.70;;;;;;;10.65;72.61;101008.78;5032304;28;20045;-77
2021/06/13 04:26:44;;;;;;;14.85;3.47;;;;;;;10.84;71.73;101010.81;5033724;28;20045;-78
2021/06/13 04:29:11;;;;;;;9.48;3.45;;;;;;;10.57;72.97;101008.56;5031983;28;20099;-78
2021/06/13 04:31:38;;;;;;;12.77;3.63;;;;;;;10.62;72.41;101014.41;5031694;28;20038;-78
2021/06/13 04:34:05;;;;;;;9.90;3.95;;;;;;;10.84;71.51;101008.97;5025020;28;20053;-78
2021/06/13 04:36:33;;;;;;;7.72;3.28;;;;;;;10.86;72.74;101010.66;5032991;28;20447;-77
2021/06/13 04:38:59;;;;;;;8.25;2.97;;;;;;;11.03;70.85;101007.44;5030960;28;20070;-77
2021/06/13 04:41:26;;;;;;;8.15;2.78;;;;;;;10.90;71.32;101012.16;5033030;28;20045;-79
2021/06/13 04:43:52;;;;;;;15.13;3.40;;;;;;;10.82;72.42;101023.50;5032531;28;20083;-78
2021/06/13 04:46:21;;;;;;;8.50;2.60;;;;;;;10.67;72.94;101016.72;5029878;28;20050;-80
2021/06/13 04:48:48;;;;;;;9.40;2.67;;;;;;;10.84;71.72;101018.88;5029393;28;20100;-79
2021/06/13 04:51:15;;;;;;;10.10;3.50;;;;;;;10.87;72.10;101021.28;5032620;28;20052;-77
2021/06/13 04:54:20;;;;;;;13.18;3.17;;;;;;;11.11;71.15;101013.00;5027254;28;20042;-78
2021/06/13 04:56:56;;;;;;;19.33;2.95;;;;;;;11.40;70.43;101016.78;5030963;28;20132;-77
2021/06/13 04:59:23;;;;;;;10.23;2.90;;;;;;;11.73;68.83;101014.03;5030584;28;20052;-79
2021/06/13 05:01:49;;;;;;;12.20;3.17;;;;;;;11.97;67.94;101023.53;5026234;28;20091;-78
2021/06/13 05:04:17;;;;;;;10.88;3.58;;;;;;;12.03;67.43;101022.13;5025009;28;20050;-78
2021/06/13 05:06:44;;;;;;;10.32;2.83;;;;;;;12.14;66.62;101029.25;5036767;28;20106;-78
2021/06/13 05:09:12;;;;;;;7.68;2.75;;;;;;;12.21;67.42;101033.13;5037095;28;20053;-79
2021/06/13 05:11:39;;;;;;;12.18;2.70;;;;;;;12.22;67.84;101040.22;5034689;28;20103;-78
2021/06/13 05:14:07;;;;;;;9.77;2.88;;;;;;;12.27;66.10;101037.94;5042018;28;20057;-78
2021/06/13 05:16:34;;;;;;;7.15;2.90;;;;;;;11.96;68.65;101029.91;5039875;28;20080;-78
2021/06/13 05:19:01;;;;;;;9.57;2.80;;;;;;;12.09;67.73;101045.81;5041795;28;20049;-78
2021/06/13 05:21:27;;;;;;;6.82;3.00;;;;;;;12.05;68.65;101044.38;5038633;28;20041;-78
2021/06/13 05:23:53;;;;;;;9.38;3.13;;;;;;;12.27;67.28;101035.25;5028787;28;20491;-78
2021/06/13 05:26:20;;;;;;;12.88;3.47;;;;;;;12.40;66.58;101038.56;5036643;28;20049;-78
2021/06/13 05:28:46;;;;;;;8.70;3.47;;;;;;;12.59;65.70;101046.72;5033506;28;20103;-77
2021/06/13 05:31:14;;;;;;;12.82;2.80;;;;;;;12.70;65.60;101052.97;5033706;28;20045;-77
2021/06/13 05:33:40;;;;;;;9.63;2.55;;;;;;;12.79;65.24;101044.06;5032500;28;20049;-77
2021/06/13 05:36:07;;;;;;;9.10;3.20;;;;;;;12.78;63.91;101055.81;5031281;28;20057;-81
2021/06/13 05:38:33;;;;;;;11.02;2.92;;;;;;;12.96;64.02;101056.00;5034448;28;20049;-78
2021/06/13 05:41:00;;;;;;;6.28;2.85;;;;;;;13.10;62.66;101058.28;5026158;28;20095;-79
2021/06/13 05:43:26;;;;;;;11.32;3.35;;;;;;;13.16;61.72;101063.97;5033531;28;20564;-78
2021/06/13 05:45:53;;;;;;;12.27;2.95;;;;;;;13.37;62.41;101058.44;5028512;28;20108;-76
2021/06/13 05:48:20;;;;;;;13.38;2.92;;;;;;;13.51;61.45;101056.34;5015805;28;20052;-79
2021/06/13 05:50:47;;;;;;;12.45;2.85;;;;;;;13.57;61.46;101066.53;5037350;28;20041;-80
2021/06/13 05:53:14;;;;;;;8.65;2.60;;;;;;;13.28;61.97;101074.66;5026031;28;20072;-80
2021/06/13 05:55:40;;;;;;;10.75;2.75;;;;;;;13.29;62.13;101073.66;5025189;28;20115;-80
2021/06/13 05:58:07;;;;;;;9.73;2.00;;;;;;;13.35;61.54;101089.25;5033011;28;20076;-78
2021/06/13 06:00:35;;;;;;;9.43;2.22;;;;;;;13.27;62.47;101086.44;5029343;28;20049;-77
2021/06/13 06:03:02;;;;;;;17.27;3.10;;;;;;;13.18;62.63;101088.09;5028672;28;20065;-77
2021/06/13 06:05:31;;;;;;;9.00;2.58;;;;;;;13.26;60.42;101098.19;5026298;28;20049;-79
2021/06/13 06:07:58;;;;;;;6.60;2.17;;;;;;;13.29;61.17;101095.22;5033432;28;20054;-81
2021/06/13 06:10:26;;;;;;;6.32;2.53;;;;;;;13.33;60.40;101094.78;5033117;28;20061;-76
2021/06/13 06:12:54;;;;;;;6.13;2.72;;;;;;;13.60;60.14;101096.75;5027609;28;20123;-79
2021/06/13 06:15:22;;;;;;;7.25;2.08;;;;;;;13.61;60.86;101095.75;5034475;28;20060;-77
2021/06/13 06:17:50;;;;;;;10.77;2.75;;;;;;;13.56;60.45;101103.44;5033557;28;20053;-77
2021/06/13 06:20:22;;;;;;;9.63;2.67;;;;;;;13.83;59.86;101100.00;5034662;28;20127;-79
2021/06/13 06:22:51;;;;;;;12.60;2.47;;;;;;;13.93;58.42;101102.69;5031725;28;20172;-79
2021/06/13 06:25:20;;;;;;;9.73;2.63;;;;;;;14.03;58.23;101092.72;5029869;28;20054;-75
2021/06/13 06:27:46;;;;;;;9.30;2.75;;;;;;;14.04;57.74;101091.72;5030405;28;20046;-77
2021/06/13 06:30:14;;;;;;;8.93;2.20;;;;;;;14.23;57.48;101097.09;5031876;28;20175;-77
2021/06/13 06:32:42;;;;;;;11.25;2.30;;;;;;;14.16;56.45;101097.81;5030803;28;20041;-79
2021/06/13 06:35:10;;;;;;;8.68;2.85;;;;;;;14.11;57.31;101108.22;5034486;28;20053;-77
2021/06/13 06:37:38;;;;;;;11.15;2.80;;;;;;;13.83;57.25;101099.16;5032390;28;20053;-78
2021/06/13 06:40:08;;;;;;;7.55;2.55;;;;;;;13.90;58.00;101100.28;5029077;28;20076;-75
2021/06/13 06:42:35;;;;;;;9.60;2.25;;;;;;;13.78;58.05;101087.97;5027203;28;20099;-77
2021/06/13 06:45:01;;;;;;;8.35;2.13;;;;;;;13.84;56.68;101098.16;5028013;28;20046;-77
2021/06/13 06:47:28;;;;;;;10.20;2.35;;;;;;;13.91;58.71;101097.44;5036946;28;20056;-79
2021/06/13 06:49:54;;;;;;;9.38;2.67;;;;;;;13.93;57.62;101105.41;5036570;28;20072;-77
2021/06/13 06:52:21;;;;;;;8.93;2.50;;;;;;;14.04;57.60;101113.31;5026888;28;20484;-77
2021/06/13 06:54:47;;;;;;;6.40;1.88;;;;;;;14.18;56.45;101110.16;5032625;28;20573;-79
2021/06/13 06:57:15;;;;;;;8.90;2.47;;;;;;;14.08;56.84;101119.28;5033819;28;20049;-78
2021/06/13 06:59:41;;;;;;;8.32;2.65;;;;;;;14.12;57.41;101112.59;5035176;28;20072;-77
2021/06/13 07:02:08;;;;;;;9.15;2.28;;;;;;;13.92;57.09;101114.50;5029446;28;20103;-78
2021/06/13 07:04:34;;;;;;;10.30;2.22;;;;;;;14.05;57.55;101123.13;5008324;28;20778;-76
2021/06/13 07:07:00;;;;;;;7.28;2.17;;;;;;;14.27;56.84;101125.50;5032004;28;20100;-77
2021/06/13 07:09:27;;;;;;;7.40;2.65;;;;;;;14.49;55.45;101124.31;5033732;28;20049;-76
2021/06/13 07:11:53;;;;;;;8.35;2.25;;;;;;;14.75;55.04;101126.31;5034624;28;20050;-77
2021/06/13 07:14:23;;;;;;;6.72;1.70;;;;;;;14.71;55.52;101128.50;5035128;28;20766;-78
2021/06/13 07:16:53;;;;;;;7.28;2.38;;;;;;;14.71;55.72;101125.78;5033944;28;20550;-79
2021/06/13 07:19:22;;;;;;;10.93;1.90;;;;;;;14.96;54.37;101132.34;5034688;28;20050;-81
2021/06/13 07:21:49;;;;;;;8.70;2.22;;;;;;;14.60;55.46;101131.38;5035801;28;20045;-79
2021/06/13 07:24:16;;;;;;;9.15;2.20;;;;;;;14.74;54.81;101133.59;5032726;28;20168;-78
2021/06/13 07:26:42;;;;;;;5.75;2.08;;;;;;;15.03;55.67;101130.72;5036045;28;20049;-78
2021/06/13 07:29:09;;;;;;;10.40;2.60;;;;;;;15.11;54.33;101127.25;5026115;28;20111;-77
2021/06/13 07:31:37;;;;;;;9.77;2.25;;;;;;;15.29;53.69;101135.41;5034867;28;20102;-77
2021/06/13 07:34:03;;;;;;;10.65;1.92;;;;;;;15.45;53.47;101139.13;5034875;28;20046;-79
2021/06/13 07:36:29;;;;;;;8.70;2.10;;;;;;;15.27;54.95;101138.25;5033456;28;20435;-78
2021/06/13 07:38:56;;;;;;;8.05;3.63;;;;;;;15.24;53.89;101153.94;5032781;28;20068;-79
2021/06/13 07:41:22;;;;;;;7.75;2.78;;;;;;;14.96;53.72;101158.53;5032371;28;20133;-79
2021/06/13 07:43:49;;;;;;;7.47;1.90;;;;;;;14.67;55.10;101164.88;5033543;28;20045;-79
2021/06/13 07:46:15;;;;;;;7.30;2.20;;;;;;;14.45;56.23;101162.59;5034479;28;20057;-78
2021/06/13 07:48:43;;;;;;;6.10;2.15;;;;;;;14.54;57.80;101169.78;5032776;28;20061;-77
2021/06/13 07:51:10;;;;;;;7.82;1.98;;;;;;;14.59;55.61;101157.53;5034065;28;20103;-79
2021/06/13 07:53:43;;;;;;;4.45;1.90;;;;;;;14.71;57.28;101160.06;5029975;28;20053;-78
2021/06/13 07:56:10;;;;;;;5.32;2.13;;;;;;;14.81;56.75;101166.28;5033576;28;20111;-79
2021/06/13 07:58:37;;;;;;;10.13;2.22;;;;;;;15.01;54.14;101164.31;5031425;28;20053;-79
2021/06/13 08:01:03;;;;;;;6.15;2.17;;;;;;;14.85;55.02;101168.53;5033942;28;20068;-79
2021/06/13 08:03:30;;;;;;;9.10;2.60;;;;;;;14.85;55.44;101157.72;5027815;28;20491;-76
2021/06/13 08:05:58;;;;;;;9.40;2.53;;;;;;;14.99;54.42;101172.56;5018294;28;20121;-79
2021/06/13 08:08:24;;;;;;;12.57;2.72;;;;;;;14.42;56.76;101176.31;5033732;28;20041;-77
2021/06/13 08:10:50;;;;;;;9.32;2.20;;;;;;;14.61;54.46;101182.56;5033154;28;20060;-78
2021/06/13 08:13:18;;;;;;;10.00;2.60;;;;;;;14.53;55.55;101173.47;5027484;28;20069;-80
2021/06/13 08:15:45;;;;;;;6.85;2.33;;;;;;;14.46;54.97;101183.19;5035913;28;20103;-78
2021/06/13 08:18:13;;;;;;;7.78;2.15;;;;;;;14.43;55.38;101175.31;5035534;28;20123;-81
2021/06/13 08:20:39;;;;;;;7.35;2.10;;;;;;;14.47;55.04;101184.88;5029557;28;20050;-78
2021/06/13 08:23:08;;;;;;;7.68;1.65;;;;;;;14.44;56.33;101194.09;5032069;28;20073;-79
2021/06/13 08:25:35;;;;;;;12.55;2.75;;;;;;;14.07;57.79;101198.56;5033502;28;20088;-77
2021/06/13 08:28:04;;;;;;;10.07;2.33;;;;;;;13.93;57.29;101207.94;5031985;28;20053;-77
2021/06/13 08:30:31;;;;;;;6.53;2.40;;;;;;;13.69;60.01;101190.31;5027858;28;20041;-79
2021/06/13 08:32:58;;;;;;;8.43;2.28;;;;;;;13.64;60.18;101192.63;5032822;28;20053;-78
2021/06/13 08:35:25;;;;;;;10.07;2.65;;;;;;;13.69;58.83;101190.31;5034136;28;20045;-79
2021/06/13 08:37:51;;;;;;;10.63;2.70;;;;;;;13.58;60.03;101186.91;5031604;28;20056;-78
2021/06/13 08:40:20;;;;;;;6.72;2.03;;;;;;;13.89;59.01;101195.75;5032935;28;20057;-79
2021/06/13 08:42:46;;;;;;;8.23;2.45;;;;;;;14.14;58.60;101194.28;5031011;28;20056;-79
2021/06/13 08:45:15;;;;;;;9.05;2.88;;;;;;;14.39;58.13;101198.22;5027764;28;20050;-78
2021/06/13 08:47:44;;;;;;;9.00;2.22;;;;;;;14.30;58.12;101190.00;5025695;28;20088;-79
2021/06/13 08:50:12;;;;;;;10.57;2.95;;;;;;;14.36;57.22;101188.56;5032511;28;20081;-78
2021/06/13 08:52:38;;;;;;;9.23;2.33;;;;;;;14.59;57.16;101194.53;5023681;28;20041;-78
2021/06/13 08:55:06;;;;;;;9.57;2.60;;;;;;;14.37;57.45;101205.63;5031657;28;20053;-77
2021/06/13 08:57:34;;;;;;;11.57;2.50;;;;;;;14.99;56.13;101202.31;5031878;28;20056;-78
2021/06/13 09:00:01;;;;;;;9.20;2.78;;;;;;;15.43;56.37;101211.47;5032074;28;20431;-81
2021/06/13 09:02:27;;;;;;;12.63;2.60;;;;;;;15.61;53.75;101211.50;5032375;28;20049;-77
2021/06/13 09:04:54;;;;;;;6.15;1.80;;;;;;;15.84;54.49;101206.50;5030704;28;20707;-79
2021/06/13 09:07:23;;;;;;;5.93;2.20;;;;;;;16.25;52.29;101213.13;5031674;28;20084;-81
2021/06/13 09:09:50;;;;;;;8.38;2.15;;;;;;;16.43;51.63;101204.94;5018014;28;20081;-78
2021/06/13 09:12:19;;;;;;;6.15;2.25;;;;;;;16.11;51.16;101210.13;5032870;28;20049;-78
2021/06/13 09:14:50;;;;;;;10.00;2.67;;;;;;;15.73;52.32;101207.56;5034010;28;20049;-80
2021/06/13 09:17:19;;;;;;;9.65;2.83;;;;;;;15.53;52.97;101211.41;5025433;28;20053;-79
2021/06/13 09:20:17;;;;;;;7.18;2.55;;;;;;;15.47;54.22;101207.44;5036088;28;20055;-81
2021/06/13 09:23:06;;;;;;;6.40;2.03;;;;;;;16.09;51.04;101221.94;5029455;28;20132;-78
2021/06/13 09:25:33;;;;;;;9.00;2.63;;;;;;;16.48;49.33;101215.31;5025299;28;20075;-78
2021/06/13 09:28:07;;;;;;;9.68;3.45;;;;;;;16.44;52.29;101205.78;5034189;28;20107;-76
2021/06/13 09:30:39;;;;;;;9.25;2.45;;;;;;;17.03;48.56;101212.25;5033727;28;20056;-78
2021/06/13 09:33:10;;;;;;;15.10;2.58;;;;;;;17.25;50.32;101215.25;5033126;28;20113;-80
2021/06/13 09:35:37;;;;;;;9.77;3.58;;;;;;;17.26;48.16;101213.38;5032246;28;20088;-78
2021/06/13 09:38:10;;;;;;;5.53;1.95;;;;;;;17.28;48.15;101213.22;5033064;28;20057;-78
2021/06/13 09:40:39;;;;;;;9.93;2.70;;;;;;;16.83;49.25;101212.53;5025489;28;20046;-77
2021/06/13 09:43:11;;;;;;;11.02;3.25;;;;;;;16.48;51.61;101218.88;5029236;28;20091;-78
2021/06/13 09:45:39;;;;;;;7.60;2.58;;;;;;;16.62;51.03;101220.16;5031003;28;20567;-79
2021/06/13 09:48:08;;;;;;;9.45;2.50;;;;;;;16.97;50.08;101224.63;5026494;28;20045;-80
2021/06/13 09:50:40;;;;;;;10.00;2.70;;;;;;;17.18;48.83;101227.78;5029353;28;20045;-77
2021/06/13 09:53:24;;;;;;;11.25;3.35;;;;;;;17.19;48.65;101212.34;5030326;28;20053;-77
2021/06/13 09:56:15;;;;;;;8.70;3.20;;;;;;;17.38;49.25;101227.50;5033109;28;20108;-77
2021/06/13 09:58:54;;;;;;;11.57;2.60;;;;;;;17.28;47.85;101221.34;5032470;28;20049;-81
2021/06/13 10:01:25;;;;;;;8.05;2.72;;;;;;;17.51;49.15;101239.56;5032056;28;20100;-78
2021/06/13 10:03:52;;;;;;;9.50;3.28;;;;;;;17.90;49.06;101224.59;5030003;28;20046;-77
2021/06/13 10:06:20;;;;;;;8.10;2.63;;;;;;;17.69;47.81;101227.78;5030033;28;20045;-78
2021/06/13 10:08:48;;;;;;;12.27;3.38;;;;;;;17.81;48.43;101221.88;5021870;28;20661;-76
2021/06/13 10:11:16;;;;;;;7.22;2.67;;;;;;;18.35;46.46;101235.84;5034554;28;20412;-78
2021/06/13 10:13:52;;;;;;;10.57;2.83;;;;;;;17.85;47.44;101225.09;5034900;28;20492;-78
2021/06/13 10:16:29;;;;;;;10.30;3.22;;;;;;;17.62;46.59;101234.84;5031578;28;20046;-78
2021/06/13 10:18:57;;;;;;;7.70;3.08;;;;;;;17.46;47.55;101214.81;5035437;28;20695;-79
2021/06/13 10:21:28;;;;;;;7.70;2.67;;;;;;;18.11;47.41;101204.09;5033613;28;20049;-77
2021/06/13 10:23:55;;;;;;;9.65;2.92;;;;;;;18.37;45.62;101197.59;5035669;28;20512;-80
2021/06/13 10:26:22;;;;;;;10.38;2.53;;;;;;;18.59;47.03;101213.22;5036441;28;20041;-77
2021/06/13 10:28:49;;;;;;;8.75;3.00;;;;;;;18.39;43.68;101209.16;5035793;28;20562;-78
2021/06/13 10:31:15;;;;;;;8.23;2.58;;;;;;;19.10;42.19;101202.03;5036351;28;20052;-78
2021/06/13 10:33:47;;;;;;;7.68;3.10;;;;;;;18.69;42.39;101205.72;5037174;28;20042;-77
2021/06/13 10:36:17;;;;;;;8.02;2.60;;;;;;;18.36;42.64;101217.66;5036216;28;20041;-78
2021/06/13 10:38:44;;;;;;;7.70;2.85;;;;;;;17.70;43.76;101205.91;5039028;28;20053;-78
2021/06/13 10:41:11;;;;;;;5.47;3.15;;;;;;;17.05;46.11;101227.38;5037961;28;20140;-78
2021/06/13 10:43:39;;;;;;;7.93;3.10;;;;;;;16.71;47.47;101229.22;5035169;28;20436;-79
2021/06/13 10:46:11;;;;;;;9.63;3.22;;;;;;;16.73;47.87;101228.06;5032604;28;20046;-76
2021/06/13 10:48:41;;;;;;;7.80;2.75;;;;;;;17.04;47.76;101220.22;5035145;28;20499;-78
2021/06/13 10:51:33;;;;;;;8.38;2.67;;;;;;;17.00;47.36;101235.13;5038872;28;20503;-78
2021/06/13 10:54:31;;;;;;;7.05;2.78;;;;;;;16.63;49.61;101244.38;5035642;28;20049;-78
2021/06/13 10:57:32;;;;;;;7.25;2.78;;;;;;;16.72;50.70;101245.31;5033957;28;20060;-78
2021/06/13 11:00:03;;;;;;;6.10;2.90;;;;;;;17.22;48.90;101236.44;5030522;28;20484;-77
2021/06/13 11:02:55;;;;;;;8.32;2.78;;;;;;;16.58;50.20;101245.88;5040873;28;20068;-79
2021/06/13 11:05:43;;;;;;;11.45;3.42;;;;;;;16.90;51.65;101240.69;5034373;28;20132;-78
2021/06/13 11:08:12;;;;;;;12.85;2.92;;;;;;;17.52;50.28;101235.00;5041222;28;20069;-78
2021/06/13 11:10:39;;;;;;;8.98;3.67;;;;;;;17.37;47.11;101242.06;5041185;28;20041;-76
2021/06/13 11:13:10;;;;;;;9.90;3.42;;;;;;;17.75;47.71;101246.97;5038517;28;20048;-77
2021/06/13 11:16:02;;;;;;;8.82;2.90;;;;;;;17.68;47.35;101254.06;5036659;28;20091;-79
2021/06/13 11:18:31;;;;;;;12.52;3.10;;;;;;;18.04;47.30;101235.66;5035469;28;20045;-78
2021/06/13 11:21:07;;;;;;;9.68;3.95;;;;;;;17.69;47.71;101247.63;5034783;28;20096;-79
2021/06/13 11:23:53;;;;;;;8.73;3.22;;;;;;;17.99;47.81;101248.00;5031609;28;20049;-78
2021/06/13 11:26:40;;;;;;;8.07;2.97;;;;;;;18.63;46.42;101240.88;5027968;28;20153;-78
2021/06/13 11:29:10;;;;;;;9.32;3.20;;;;;;;19.09;45.98;101233.00;5032095;28;20131;-79
2021/06/13 11:31:45;;;;;;;12.13;2.80;;;;;;;18.53;46.29;101229.34;5034107;28;20239;-79
2021/06/13 11:34:12;;;;;;;9.55;3.83;;;;;;;18.02;48.35;101243.13;5027671;28;20046;-78